Cherry Valley, California
Current Conditions -  °F | °C
As of 6:58 PM on Sunday 23 Nov 2014 (Local Time) from KRIV Reporting Station
Clear Clear  
Wind Chill: 55°   Ceiling: Unl
Heat Index: 55°   Visibility: 10mi
Dew Point:   Wind: 2mph
Humidity: 15%   Direction: 50°NE
Pressure: 30.16"   Gusts: NA
Location:  33.9205°N, 116.973°W
Report Text: KRIV 240258Z AUTO 05002KT 10SM CLR 13/M13 A3016 RMK AO2 SLP212 T01301135 52016
Loading
Personal Weather Stations






























Interactive Weather Map New forecast layout! Learn more

10-Day Weather Forecast

Advertisements
Track Severe Weather on mobile